Time;durP1;ratioP1;P1;durP2;ratioP2;P2;SDS_P1;SDS_P2;PMS_P1;PMS_P2;Temp;Humidity;BMP_temperature;BMP_pressure;BME280_temperature;BME280_humidity;BME280_pressure;Samples;Min_cycle;Max_cycle;Signal;HPM_P1;HPM_P2
2024/01/09 00:02:22;;;;;;;10.40;5.60;;;;;;;-14.50;100.00;101506.95;106507;1256;60488;-56
2024/01/09 00:04:50;;;;;;;6.40;4.40;;;;;;;-14.49;100.00;101514.46;104946;1258;61763;-57
2024/01/09 00:07:17;;;;;;;8.20;5.10;;;;;;;-14.48;100.00;101516.77;104791;1260;74344;-57
2024/01/09 00:09:45;;;;;;;11.00;6.00;;;;;;;-14.48;100.00;101514.35;104758;1254;65181;-56
2024/01/09 00:12:12;;;;;;;6.20;4.30;;;;;;;-14.46;100.00;101519.14;104962;1258;71462;-55
2024/01/09 00:14:39;;;;;;;7.40;4.50;;;;;;;-14.48;100.00;101516.42;105017;1256;61589;-56
2024/01/09 00:17:07;;;;;;;8.10;4.40;;;;;;;-14.46;100.00;101517.91;104872;1254;60485;-57
2024/01/09 00:19:34;;;;;;;7.50;5.00;;;;;;;-14.47;100.00;101524.90;105845;1255;73825;-56
2024/01/09 00:22:05;;;;;;;10.80;6.30;;;;;;;-14.49;100.00;101527.52;105412;1260;65558;-57
2024/01/09 00:24:32;;;;;;;8.00;5.00;;;;;;;-14.52;100.00;101533.30;104806;1256;72670;-57
2024/01/09 00:26:59;;;;;;;7.40;4.80;;;;;;;-14.59;100.00;101536.26;104839;1255;62366;-55
2024/01/09 00:29:27;;;;;;;6.70;4.40;;;;;;;-14.64;100.00;101538.41;105346;1256;60448;-57
2024/01/09 00:31:54;;;;;;;5.40;4.10;;;;;;;-14.69;100.00;101548.49;105019;1254;72657;-57
2024/01/09 00:34:22;;;;;;;5.50;2.70;;;;;;;-14.73;100.00;101550.09;104983;1259;66207;-55
2024/01/09 00:36:49;;;;;;;8.40;3.10;;;;;;;-14.76;100.00;101552.74;104977;1260;71527;-57
2024/01/09 00:39:17;;;;;;;6.80;2.50;;;;;;;-14.77;100.00;101550.60;104889;1256;60519;-56
2024/01/09 00:41:44;;;;;;;8.40;2.50;;;;;;;-14.77;100.00;101557.17;104736;1254;60599;-56
2024/01/09 00:44:11;;;;;;;6.60;2.50;;;;;;;-14.78;100.00;101560.40;104884;1254;71497;-57
2024/01/09 00:46:39;;;;;;;6.80;2.90;;;;;;;-14.82;100.00;101567.80;104867;1254;67180;-57
2024/01/09 00:49:06;;;;;;;8.30;2.20;;;;;;;-14.85;100.00;101567.71;104910;1259;72762;-56
2024/01/09 00:51:34;;;;;;;5.80;2.40;;;;;;;-14.85;100.00;101569.21;105413;1259;63815;-56
2024/01/09 00:54:01;;;;;;;7.50;2.30;;;;;;;-14.89;100.00;101568.41;105013;1256;60548;-56
2024/01/09 00:56:28;;;;;;;9.20;3.00;;;;;;;-14.94;100.00;101570.08;104843;1254;73835;-56
2024/01/09 00:58:56;;;;;;;7.60;2.80;;;;;;;-14.96;100.00;101564.29;105013;1255;65978;-57
2024/01/09 01:01:23;;;;;;;7.10;2.60;;;;;;;-14.95;100.00;101566.89;104825;1254;72298;-56
2024/01/09 01:03:50;;;;;;;6.20;2.60;;;;;;;-14.92;100.00;101567.84;104852;1260;60644;-57
2024/01/09 01:06:18;;;;;;;7.10;2.20;;;;;;;-14.92;100.00;101563.05;104680;1255;62323;-56
2024/01/09 01:08:45;;;;;;;5.10;2.10;;;;;;;-14.94;100.00;101556.27;104887;1258;74564;-57
2024/01/09 01:11:13;;;;;;;6.20;2.40;;;;;;;-14.99;100.00;101555.06;104854;1257;66138;-56
2024/01/09 01:13:40;;;;;;;6.80;2.20;;;;;;;-15.00;100.00;101553.23;104827;1255;72654;-57
2024/01/09 01:16:07;;;;;;;7.30;2.50;;;;;;;-15.02;100.00;101562.40;104944;1257;60905;-56
2024/01/09 01:18:35;;;;;;;6.70;1.80;;;;;;;-15.04;100.00;101564.42;105019;1258;60341;-55
2024/01/09 01:21:02;;;;;;;6.80;2.70;;;;;;;-15.03;100.00;101568.19;104852;1254;72054;-56
2024/01/09 01:23:30;;;;;;;6.10;1.90;;;;;;;-15.03;100.00;101572.11;104986;1261;65757;-58
2024/01/09 01:25:57;;;;;;;7.70;2.50;;;;;;;-15.03;100.00;101565.55;104810;1256;72402;-57
2024/01/09 01:28:24;;;;;;;4.80;2.00;;;;;;;-15.05;100.00;101570.94;104811;1258;60550;-56
2024/01/09 01:30:52;;;;;;;6.20;2.00;;;;;;;-15.09;100.00;101573.56;105025;1256;60613;-57
2024/01/09 01:33:19;;;;;;;6.80;2.20;;;;;;;-15.09;100.00;101577.83;105386;1254;72671;-57
2024/01/09 01:35:47;;;;;;;8.00;2.40;;;;;;;-15.07;100.00;101582.45;105507;1255;66940;-57
2024/01/09 01:38:14;;;;;;;7.90;2.70;;;;;;;-15.09;100.00;101580.61;105959;1255;72735;-56
2024/01/09 01:40:42;;;;;;;7.60;2.50;;;;;;;-15.07;100.00;101584.36;104691;1255;62432;-57
2024/01/09 01:43:09;;;;;;;5.70;1.90;;;;;;;-15.03;100.00;101586.70;104808;1260;60923;-57
2024/01/09 01:45:37;;;;;;;6.40;2.30;;;;;;;-15.02;100.00;101585.65;104700;1260;74052;-57
2024/01/09 01:48:05;;;;;;;6.20;2.70;;;;;;;-15.05;100.00;101589.02;104722;1254;65641;-57
2024/01/09 01:50:32;;;;;;;12.30;2.60;;;;;;;-15.10;100.00;101587.25;105356;1260;72896;-56
2024/01/09 01:53:00;;;;;;;6.90;2.30;;;;;;;-15.10;100.00;101587.05;107354;1254;60532;-56
2024/01/09 01:55:27;;;;;;;11.00;3.20;;;;;;;-15.14;100.00;101579.44;104771;1253;60417;-57
2024/01/09 01:57:55;;;;;;;6.80;2.20;;;;;;;-15.22;100.00;101580.15;104603;1256;73821;-57
2024/01/09 02:00:22;;;;;;;4.50;1.50;;;;;;;-15.23;100.00;101586.64;104767;1254;67124;-57
2024/01/09 02:02:50;;;;;;;5.20;2.00;;;;;;;-15.21;100.00;101587.15;104842;1258;74245;-57
2024/01/09 02:05:18;;;;;;;5.70;2.30;;;;;;;-15.17;100.00;101593.65;106207;1254;61757;-55
2024/01/09 02:07:51;;;;;;;7.30;2.10;;;;;;;-15.15;100.00;101593.89;105960;1257;60477;-57
2024/01/09 02:10:22;;;;;;;7.00;1.90;;;;;;;-15.11;100.00;101596.79;104779;1258;72674;-57
2024/01/09 02:12:50;;;;;;;6.60;2.40;;;;;;;-15.10;100.00;101601.20;106812;1254;65658;-57
2024/01/09 02:15:17;;;;;;;7.10;2.70;;;;;;;-15.09;100.00;101600.06;104862;1256;72633;-54
2024/01/09 02:17:45;;;;;;;7.00;2.90;;;;;;;-15.08;100.00;101603.27;104881;1256;60544;-55
2024/01/09 02:20:12;;;;;;;5.40;2.50;;;;;;;-15.05;100.00;101601.78;104814;1258;60521;-53
2024/01/09 02:22:41;;;;;;;7.40;2.80;;;;;;;-15.02;100.00;101602.86;104943;1256;72475;-52
2024/01/09 02:25:11;;;;;;;9.90;2.80;;;;;;;-15.03;100.00;101605.91;106155;1255;66894;-55
2024/01/09 02:27:53;;;;;;;12.50;3.00;;;;;;;-15.02;100.00;101608.36;109031;1254;72678;-57
2024/01/09 02:30:21;;;;;;;8.70;3.00;;;;;;;-15.04;100.00;101608.93;105480;1255;62009;-57
2024/01/09 02:32:48;;;;;;;9.50;2.10;;;;;;;-15.01;100.00;101610.88;108758;1255;60548;-56
2024/01/09 02:35:16;;;;;;;8.60;2.60;;;;;;;-14.99;100.00;101609.90;108523;1258;74245;-56
2024/01/09 02:37:44;;;;;;;9.10;2.00;;;;;;;-15.00;100.00;101607.52;105869;1257;65847;-56
2024/01/09 02:40:11;;;;;;;7.10;1.90;;;;;;;-15.00;100.00;101610.07;104987;1260;71728;-56
2024/01/09 02:42:38;;;;;;;3.80;1.40;;;;;;;-15.02;100.00;101609.09;104848;1261;60528;-54
2024/01/09 02:45:06;;;;;;;5.30;1.90;;;;;;;-15.06;100.00;101610.45;104961;1254;60449;-56
2024/01/09 02:47:33;;;;;;;10.00;1.70;;;;;;;-15.10;100.00;101607.89;104896;1257;73773;-56
2024/01/09 02:50:01;;;;;;;5.40;1.90;;;;;;;-15.11;100.00;101608.82;107136;1256;66120;-58
2024/01/09 02:52:28;;;;;;;4.50;1.70;;;;;;;-15.11;100.00;101607.42;104863;1256;71448;-56
2024/01/09 02:54:55;;;;;;;3.10;1.50;;;;;;;-15.15;100.00;101604.67;105126;1256;60534;-56
2024/01/09 02:57:23;;;;;;;5.30;1.90;;;;;;;-15.19;100.00;101607.45;104929;1261;61781;-57
2024/01/09 02:59:50;;;;;;;4.00;1.40;;;;;;;-15.20;100.00;101603.95;104910;1259;74273;-57
2024/01/09 03:02:17;;;;;;;9.10;1.90;;;;;;;-15.20;100.00;101601.70;104902;1260;65799;-57
2024/01/09 03:04:45;;;;;;;3.90;1.40;;;;;;;-15.19;100.00;101599.52;104847;1253;72781;-57
2024/01/09 03:07:12;;;;;;;4.40;1.60;;;;;;;-15.21;100.00;101596.79;104737;1253;62430;-57
2024/01/09 03:09:43;;;;;;;7.80;1.70;;;;;;;-15.21;100.00;101600.75;104866;1256;60419;-56
2024/01/09 03:12:10;;;;;;;6.60;1.50;;;;;;;-15.15;100.00;101598.86;104927;1255;72189;-55
2024/01/09 03:14:38;;;;;;;4.00;1.80;;;;;;;-15.09;100.00;101596.77;104766;1253;66329;-56
2024/01/09 03:17:05;;;;;;;6.50;2.50;;;;;;;-15.08;100.00;101597.08;105104;1253;72676;-56
2024/01/09 03:19:33;;;;;;;5.50;1.80;;;;;;;-15.05;100.00;101600.52;105299;1255;61641;-57
2024/01/09 03:22:00;;;;;;;10.00;2.80;;;;;;;-15.01;100.00;101602.42;104851;1253;60432;-56
2024/01/09 03:24:27;;;;;;;8.40;2.20;;;;;;;-15.00;100.00;101601.49;104946;1259;72339;-56
2024/01/09 03:26:55;;;;;;;9.60;2.90;;;;;;;-15.00;100.00;101597.67;104605;1255;66758;-55
2024/01/09 03:29:22;;;;;;;7.00;2.40;;;;;;;-14.99;100.00;101592.66;104782;1253;72776;-55
2024/01/09 03:31:50;;;;;;;8.20;3.20;;;;;;;-14.96;100.00;101593.02;104618;1260;60465;-59
2024/01/09 03:34:17;;;;;;;10.40;3.20;;;;;;;-14.91;100.00;101600.70;104905;1260;60355;-56
2024/01/09 03:36:45;;;;;;;10.60;3.50;;;;;;;-14.90;100.00;101596.95;104915;1258;73808;-55
2024/01/09 03:39:14;;;;;;;7.00;3.20;;;;;;;-14.89;100.00;101600.69;104631;1253;67256;-57
2024/01/09 03:41:42;;;;;;;9.20;2.90;;;;;;;-14.86;100.00;101599.17;106301;1258;70899;-58
2024/01/09 03:44:10;;;;;;;9.80;3.00;;;;;;;-14.82;100.00;101598.96;104992;1256;61111;-58
2024/01/09 03:46:37;;;;;;;9.20;3.60;;;;;;;-14.81;100.00;101600.44;104674;1259;60554;-58
2024/01/09 03:49:04;;;;;;;8.90;2.80;;;;;;;-14.78;100.00;101599.61;104756;1256;73841;-58
2024/01/09 03:51:32;;;;;;;8.60;2.90;;;;;;;-14.78;100.00;101603.61;105078;1258;68101;-55
2024/01/09 03:53:59;;;;;;;9.60;2.70;;;;;;;-14.73;100.00;101600.23;105523;1256;72150;-56
2024/01/09 03:56:26;;;;;;;14.30;3.90;;;;;;;-14.69;100.00;101598.02;104634;1253;61765;-57
2024/01/09 03:58:54;;;;;;;10.40;3.20;;;;;;;-14.66;100.00;101598.59;105057;1258;59358;-57
2024/01/09 04:01:21;;;;;;;8.00;3.60;;;;;;;-14.61;100.00;101602.56;105063;1254;72144;-59
2024/01/09 04:03:49;;;;;;;11.90;3.00;;;;;;;-14.58;100.00;101605.59;104571;1256;67281;-55
2024/01/09 04:06:16;;;;;;;8.30;2.60;;;;;;;-14.57;100.00;101603.42;104932;1256;72743;-59
2024/01/09 04:08:43;;;;;;;9.20;2.70;;;;;;;-14.56;100.00;101605.26;104898;1256;60415;-57
2024/01/09 04:11:11;;;;;;;7.50;2.60;;;;;;;-14.53;100.00;101603.05;104829;1255;60547;-56
2024/01/09 04:13:40;;;;;;;8.80;2.50;;;;;;;-14.53;100.00;101601.02;105538;1256;74327;-57
2024/01/09 04:16:12;;;;;;;6.80;1.80;;;;;;;-14.49;100.00;101595.96;104900;1260;64889;-55
2024/01/09 04:18:40;;;;;;;9.00;2.60;;;;;;;-14.46;100.00;101604.70;104990;1256;72659;-56
2024/01/09 04:21:07;;;;;;;5.40;2.00;;;;;;;-14.45;100.00;101610.92;105035;1254;61830;-56
2024/01/09 04:23:35;;;;;;;7.90;2.70;;;;;;;-14.44;100.00;101613.41;104801;1256;61778;-57
2024/01/09 04:26:02;;;;;;;8.60;2.20;;;;;;;-14.43;100.00;101619.00;104866;1256;72519;-56
2024/01/09 04:28:30;;;;;;;8.20;3.00;;;;;;;-14.43;100.00;101623.19;104824;1254;66937;-55
2024/01/09 04:30:57;;;;;;;5.80;2.30;;;;;;;-14.43;100.00;101622.46;104938;1256;72772;-57
2024/01/09 04:33:24;;;;;;;10.40;2.60;;;;;;;-14.42;100.00;101619.77;105559;1256;61697;-55
2024/01/09 04:35:54;;;;;;;6.20;2.00;;;;;;;-14.43;100.00;101614.23;104790;1258;60560;-58
2024/01/09 04:38:21;;;;;;;5.50;2.00;;;;;;;-14.43;100.00;101620.78;105071;1259;73812;-57
2024/01/09 04:40:48;;;;;;;9.20;2.10;;;;;;;-14.43;100.00;101616.29;105043;1254;67669;-55
2024/01/09 04:43:16;;;;;;;5.80;1.80;;;;;;;-14.41;100.00;101615.09;104763;1258;71627;-57
2024/01/09 04:45:43;;;;;;;5.90;1.90;;;;;;;-14.40;100.00;101611.00;104699;1261;60557;-57
2024/01/09 04:48:10;;;;;;;5.90;2.00;;;;;;;-14.41;100.00;101607.10;104829;1256;60541;-55
2024/01/09 04:50:38;;;;;;;6.60;2.80;;;;;;;-14.42;100.00;101608.05;105034;1253;72635;-57
2024/01/09 04:53:06;;;;;;;9.80;2.60;;;;;;;-14.41;100.00;101607.98;104936;1260;65614;-57
2024/01/09 04:55:33;;;;;;;9.00;2.60;;;;;;;-14.41;100.00;101604.20;105385;1256;73282;-57
2024/01/09 04:58:00;;;;;;;5.30;1.80;;;;;;;-14.39;100.00;101606.28;104864;1261;60507;-57
2024/01/09 05:00:28;;;;;;;9.00;1.90;;;;;;;-14.36;100.00;101604.27;104848;1256;60524;-57
2024/01/09 05:02:55;;;;;;;7.50;2.00;;;;;;;-14.32;100.00;101602.10;104947;1256;72619;-56
2024/01/09 05:05:23;;;;;;;10.70;1.80;;;;;;;-14.31;100.00;101602.08;107777;1254;66220;-56
2024/01/09 05:07:50;;;;;;;5.70;1.50;;;;;;;-14.29;100.00;101602.91;104832;1255;72498;-58
2024/01/09 05:10:18;;;;;;;9.10;2.60;;;;;;;-14.26;100.00;101604.52;104676;1256;62306;-55
2024/01/09 05:12:45;;;;;;;4.70;1.90;;;;;;;-14.24;100.00;101603.33;104640;1255;60404;-55
2024/01/09 05:15:13;;;;;;;9.20;3.30;;;;;;;-14.23;100.00;101601.85;104936;1256;74191;-55
2024/01/09 05:17:40;;;;;;;10.90;3.50;;;;;;;-14.20;100.00;101596.34;104925;1254;64712;-57
2024/01/09 05:20:09;;;;;;;5.80;3.00;;;;;;;-14.16;100.00;101599.91;108921;1254;73067;-57
2024/01/09 05:22:36;;;;;;;8.20;2.50;;;;;;;-14.13;100.00;101597.98;109011;1254;61148;-57
2024/01/09 05:25:04;;;;;;;6.60;2.40;;;;;;;-14.13;100.00;101600.89;108877;1255;59983;-57
2024/01/09 05:27:31;;;;;;;9.70;3.40;;;;;;;-14.13;100.00;101601.73;105875;1257;73870;-56
2024/01/09 05:29:58;;;;;;;10.30;3.80;;;;;;;-14.11;100.00;101599.83;104636;1256;66941;-57
2024/01/09 05:32:26;;;;;;;8.00;3.80;;;;;;;-14.09;100.00;101597.02;108883;1256;71491;-56
2024/01/09 05:34:53;;;;;;;6.60;3.50;;;;;;;-14.05;100.00;101599.63;105880;1255;61697;-55
2024/01/09 05:37:21;;;;;;;6.90;2.70;;;;;;;-14.03;100.00;101603.74;104810;1261;60501;-56
2024/01/09 05:39:48;;;;;;;8.60;3.50;;;;;;;-14.01;100.00;101598.38;104582;1256;72230;-55
2024/01/09 05:42:16;;;;;;;9.20;3.70;;;;;;;-14.00;100.00;101603.52;104665;1261;65691;-55
2024/01/09 05:44:43;;;;;;;10.80;3.20;;;;;;;-13.96;100.00;101602.39;104976;1258;72776;-56
2024/01/09 05:47:11;;;;;;;9.10;3.20;;;;;;;-13.94;100.00;101597.75;105094;1256;60481;-58
2024/01/09 05:49:38;;;;;;;7.80;3.10;;;;;;;-13.92;100.00;101595.65;104717;1256;60516;-57
2024/01/09 05:52:06;;;;;;;6.60;2.90;;;;;;;-13.93;100.00;101599.39;104945;1257;74623;-56
2024/01/09 05:54:33;;;;;;;7.00;2.50;;;;;;;-13.91;100.00;101606.13;104842;1258;69251;-57
2024/01/09 05:57:00;;;;;;;5.40;2.20;;;;;;;-13.87;100.00;101607.25;104943;1261;74258;-56
2024/01/09 05:59:28;;;;;;;6.00;2.20;;;;;;;-13.85;100.00;101612.21;105106;1254;60588;-56
2024/01/09 06:01:55;;;;;;;9.00;2.30;;;;;;;-13.82;100.00;101611.11;104803;1257;61974;-52
2024/01/09 06:04:23;;;;;;;7.10;2.50;;;;;;;-13.79;100.00;101612.23;104871;1254;74382;-53
2024/01/09 06:06:51;;;;;;;11.40;3.60;;;;;;;-13.75;100.00;101616.11;105086;1254;66848;-55
2024/01/09 06:09:18;;;;;;;8.70;2.80;;;;;;;-13.70;100.00;101613.40;104895;1255;71458;-54
2024/01/09 06:11:45;;;;;;;9.10;3.10;;;;;;;-13.67;100.00;101613.77;104752;1256;61644;-56
2024/01/09 06:14:13;;;;;;;8.10;2.50;;;;;;;-13.62;100.00;101619.34;104789;1262;60522;-54
2024/01/09 06:16:41;;;;;;;10.50;4.10;;;;;;;-13.57;100.00;101618.39;104940;1259;74355;-54
2024/01/09 06:19:08;;;;;;;5.70;3.30;;;;;;;-13.52;100.00;101616.85;104572;1261;64698;-54
2024/01/09 06:21:36;;;;;;;3.70;2.80;;;;;;;-13.48;100.00;101607.66;105403;1258;73509;-53
2024/01/09 06:24:03;;;;;;;4.50;2.70;;;;;;;-13.44;100.00;101613.02;105073;1256;61673;-52
2024/01/09 06:26:31;;;;;;;3.40;2.50;;;;;;;-13.38;100.00;101618.31;105029;1256;60586;-53
2024/01/09 06:28:58;;;;;;;3.20;2.90;;;;;;;-13.34;100.00;101621.73;104774;1256;74692;-54
2024/01/09 06:31:26;;;;;;;4.00;1.40;;;;;;;-13.30;100.00;101623.42;104781;1260;67771;-57
2024/01/09 06:33:53;;;;;;;5.40;2.40;;;;;;;-13.27;100.00;101622.77;104726;1261;73126;-55
2024/01/09 06:36:21;;;;;;;5.40;3.20;;;;;;;-13.22;100.00;101633.38;104941;1256;60660;-56
2024/01/09 06:38:48;;;;;;;5.00;3.10;;;;;;;-13.16;100.00;101642.61;105333;1255;60414;-53
2024/01/09 06:41:16;;;;;;;7.20;3.40;;;;;;;-13.09;100.00;101647.45;105119;1254;74323;-53
2024/01/09 06:43:43;;;;;;;5.30;2.80;;;;;;;-13.04;100.00;101643.20;105016;1260;65567;-53
2024/01/09 06:46:11;;;;;;;6.80;3.30;;;;;;;-12.99;100.00;101637.25;105250;1256;71483;-53
2024/01/09 06:48:38;;;;;;;4.20;2.50;;;;;;;-12.94;100.00;101633.83;105034;1262;60629;-55
2024/01/09 06:51:06;;;;;;;4.80;2.90;;;;;;;-12.90;100.00;101630.05;104987;1255;60817;-52
2024/01/09 06:53:34;;;;;;;4.40;2.90;;;;;;;-12.86;100.00;101636.06;104890;1254;72629;-53
2024/01/09 06:56:01;;;;;;;3.00;2.40;;;;;;;-12.81;100.00;101634.48;104974;1255;64647;-54
2024/01/09 06:58:29;;;;;;;6.40;2.40;;;;;;;-12.77;100.00;101638.65;106295;1258;73567;-53
2024/01/09 07:00:56;;;;;;;5.90;2.30;;;;;;;-12.69;100.00;101635.95;104913;1260;61715;-55
2024/01/09 07:03:24;;;;;;;5.50;2.40;;;;;;;-12.62;100.00;101641.24;105057;1257;60575;-54
2024/01/09 07:05:51;;;;;;;6.40;2.30;;;;;;;-12.56;100.00;101646.00;105647;1258;75707;-56
2024/01/09 07:08:19;;;;;;;6.60;2.20;;;;;;;-12.52;100.00;101646.88;105091;1260;67340;-53
2024/01/09 07:10:46;;;;;;;5.00;2.10;;;;;;;-12.47;100.00;101648.56;105217;1260;70956;-53
2024/01/09 07:13:14;;;;;;;8.00;2.10;;;;;;;-12.39;100.00;101646.63;104870;1256;61827;-54
2024/01/09 07:15:42;;;;;;;6.80;3.20;;;;;;;-12.29;100.00;101650.43;104788;1255;60554;-54
2024/01/09 07:18:09;;;;;;;6.60;1.90;;;;;;;-12.19;100.00;101655.29;105034;1260;313333;-54
2024/01/09 07:22:54;;;;;;;5.20;1.90;;;;;;;-12.03;100.00;101684.38;102600;1292;599680;-56
2024/01/09 07:25:35;;;;;;;5.10;2.40;;;;;;;-11.96;100.00;101675.20;104736;1266;59314;-53
2024/01/09 07:28:03;;;;;;;5.10;2.90;;;;;;;-11.92;100.00;101671.68;104588;1262;59670;-52
2024/01/09 07:30:31;;;;;;;4.90;2.30;;;;;;;-11.91;100.00;101671.73;104481;1266;72330;-54
2024/01/09 07:32:58;;;;;;;8.10;2.60;;;;;;;-11.90;100.00;101666.94;105037;1264;67316;-53
2024/01/09 07:35:26;;;;;;;7.70;3.10;;;;;;;-11.88;100.00;101673.46;104450;1266;409227;-54
2024/01/09 07:37:54;;;;;;;5.00;2.30;;;;;;;-11.86;100.00;101672.06;104631;1257;61696;-54
2024/01/09 07:40:21;;;;;;;8.70;2.20;;;;;;;-11.83;100.00;101672.15;104576;1262;59915;-54
2024/01/09 07:42:48;;;;;;;9.50;3.00;;;;;;;-11.76;100.00;101670.19;104737;1263;72802;-56
2024/01/09 07:45:29;;;;;;;5.60;2.10;;;;;;;-11.69;100.00;101665.25;104651;1263;65666;-54
2024/01/09 07:47:59;;;;;;;4.40;1.80;;;;;;;-11.64;100.00;101669.30;105397;1262;71267;-56
2024/01/09 07:50:27;;;;;;;6.00;2.10;;;;;;;-11.56;100.00;101673.52;104676;1261;60226;-54
2024/01/09 07:52:55;;;;;;;3.20;1.80;;;;;;;-11.47;100.00;101670.65;105712;1262;60136;-53
2024/01/09 07:55:22;;;;;;;5.50;2.00;;;;;;;-11.38;100.00;101673.14;104540;1264;72154;-53
2024/01/09 07:57:49;;;;;;;3.30;1.40;;;;;;;-11.28;100.00;101678.55;104592;1262;65762;-54
2024/01/09 08:00:17;;;;;;;2.90;1.30;;;;;;;-11.19;100.00;101680.55;104772;1262;72683;-52
2024/01/09 08:02:45;;;;;;;4.30;1.00;;;;;;;-11.13;100.00;101679.98;105052;1263;59824;-53
2024/01/09 08:05:12;;;;;;;2.70;1.10;;;;;;;-11.04;100.00;101680.07;104820;1263;59738;-53
2024/01/09 08:07:40;;;;;;;4.40;1.40;;;;;;;-10.94;100.00;101672.05;104481;1264;72018;-52
2024/01/09 08:10:07;;;;;;;2.70;1.10;;;;;;;-10.87;100.00;101680.20;104587;1263;67176;-56
2024/01/09 08:12:35;;;;;;;3.30;1.20;;;;;;;-10.80;100.00;101673.86;106585;1263;73182;-53
2024/01/09 08:15:03;;;;;;;3.40;1.10;;;;;;;-10.75;100.00;101678.04;104545;1261;61677;-52
2024/01/09 08:17:32;;;;;;;5.60;1.40;;;;;;;-10.71;100.00;101676.38;108842;1258;58574;-55
2024/01/09 08:19:59;;;;;;;3.00;1.20;;;;;;;-10.67;100.00;101676.27;106087;1262;71834;-53
2024/01/09 08:22:28;;;;;;;4.20;1.60;;;;;;;-10.60;100.00;101683.33;104768;1263;65708;-52
2024/01/09 08:24:55;;;;;;;4.20;1.50;;;;;;;-10.56;100.00;101684.02;105200;1267;74863;-51
2024/01/09 08:27:23;;;;;;;5.30;2.30;;;;;;;-10.49;100.00;101689.66;104624;1264;60896;-55
2024/01/09 08:29:50;;;;;;;7.00;2.50;;;;;;;-10.43;100.00;101691.98;105009;1263;59739;-52
2024/01/09 08:32:18;;;;;;;5.90;1.80;;;;;;;-10.37;100.00;101694.65;104673;1258;73149;-55
2024/01/09 08:34:46;;;;;;;5.70;1.50;;;;;;;-10.33;100.00;101695.07;105074;1257;65727;-54
2024/01/09 08:37:13;;;;;;;5.10;1.60;;;;;;;-10.29;100.00;101697.73;105727;1263;72652;-53
2024/01/09 08:39:41;;;;;;;4.20;2.00;;;;;;;-10.26;100.00;101693.46;104648;1264;60881;-53
2024/01/09 08:42:08;;;;;;;3.70;1.40;;;;;;;-10.22;100.00;101691.45;104796;1263;60504;-53
2024/01/09 08:44:35;;;;;;;6.10;2.10;;;;;;;-10.18;100.00;101690.45;104728;1258;73123;-53
2024/01/09 08:47:03;;;;;;;10.10;2.10;;;;;;;-10.14;100.00;101690.91;104790;1264;64682;-53
2024/01/09 08:49:30;;;;;;;7.80;2.20;;;;;;;-10.09;100.00;101692.95;104672;1271;72478;-54
2024/01/09 08:51:58;;;;;;;5.70;1.60;;;;;;;-10.02;100.00;101690.48;104551;1261;59964;-53
2024/01/09 08:54:25;;;;;;;5.90;2.10;;;;;;;-9.96;100.00;101691.21;104427;1258;59582;-54
2024/01/09 08:56:52;;;;;;;5.10;1.90;;;;;;;-9.93;100.00;101693.30;104556;1263;71917;-53
2024/01/09 08:59:20;;;;;;;5.80;2.50;;;;;;;-9.90;100.00;101699.38;104600;1258;65832;-52
2024/01/09 09:01:47;;;;;;;4.60;1.80;;;;;;;-9.86;100.00;101697.02;104639;1263;74972;-55
2024/01/09 09:04:14;;;;;;;7.60;2.30;;;;;;;-9.81;100.00;101696.67;108476;1257;59690;-57
2024/01/09 09:06:42;;;;;;;7.60;3.20;;;;;;;-9.76;100.00;101697.48;107796;1261;60090;-52
2024/01/09 09:09:09;;;;;;;5.10;2.20;;;;;;;-9.72;100.00;101701.44;104454;1263;73318;-53
2024/01/09 09:11:37;;;;;;;7.30;2.10;;;;;;;-9.71;100.00;101706.39;104491;1258;64636;-53
2024/01/09 09:14:04;;;;;;;4.10;2.20;;;;;;;-9.67;100.00;101704.18;104682;1264;70481;-55
2024/01/09 09:16:31;;;;;;;5.30;1.90;;;;;;;-9.61;100.00;101700.41;104522;1261;60930;-54
2024/01/09 09:19:02;;;;;;;5.40;2.10;;;;;;;-9.54;100.00;101696.81;104605;1258;60361;-57
2024/01/09 09:21:30;;;;;;;5.30;2.10;;;;;;;-9.49;100.00;101697.16;104705;1260;73070;-55
2024/01/09 09:23:57;;;;;;;7.60;2.30;;;;;;;-9.47;100.00;101699.02;105759;1263;67519;-54
2024/01/09 09:26:25;;;;;;;3.70;1.40;;;;;;;-9.43;100.00;101695.08;104467;1257;73236;-53
2024/01/09 09:28:53;;;;;;;5.30;1.70;;;;;;;-9.40;100.00;101690.55;104469;1261;60115;-55
2024/01/09 09:31:37;;;;;;;5.00;1.50;;;;;;;-9.34;100.00;101692.69;105612;1264;59731;-55
2024/01/09 09:34:05;;;;;;;5.60;1.90;;;;;;;-9.28;100.00;101687.70;104493;1261;71046;-52
2024/01/09 09:36:32;;;;;;;5.60;1.90;;;;;;;-9.23;100.00;101686.11;104771;1260;65975;-54
2024/01/09 09:39:00;;;;;;;5.60;2.40;;;;;;;-9.18;100.00;101682.06;104510;1263;72762;-55
2024/01/09 09:41:28;;;;;;;6.80;1.50;;;;;;;-9.12;100.00;101677.89;104691;1263;59820;-54
2024/01/09 09:43:56;;;;;;;6.00;1.80;;;;;;;-9.08;100.00;101680.55;105268;1258;59789;-53
2024/01/09 09:46:32;;;;;;;6.40;1.60;;;;;;;-9.03;100.00;101678.63;104505;1263;71858;-54
2024/01/09 09:48:59;;;;;;;4.90;2.80;;;;;;;-8.99;100.00;101680.95;105285;1259;65935;-52
2024/01/09 09:51:27;;;;;;;6.70;2.00;;;;;;;-8.95;100.00;101680.17;105258;1263;74981;-54
2024/01/09 09:53:54;;;;;;;3.60;1.60;;;;;;;-8.89;100.00;101686.92;104580;1263;62969;-56
2024/01/09 09:56:22;;;;;;;8.00;2.30;;;;;;;-8.86;100.00;101683.83;105073;1264;59628;-53
2024/01/09 09:58:50;;;;;;;4.20;1.60;;;;;;;-8.80;100.00;101685.23;104820;1260;73059;-54
2024/01/09 10:01:17;;;;;;;6.60;1.90;;;;;;;-8.74;100.00;101686.30;104728;1262;65706;-54
2024/01/09 10:03:50;;;;;;;2.80;1.40;;;;;;;-8.66;100.00;101682.21;105037;1263;73093;-53
2024/01/09 10:06:18;;;;;;;5.00;2.00;;;;;;;-8.60;100.00;101683.46;104733;1260;59864;-54
2024/01/09 10:08:47;;;;;;;4.50;1.40;;;;;;;-8.57;100.00;101683.27;105384;1258;60112;-56
2024/01/09 10:11:15;;;;;;;2.90;1.60;;;;;;;-8.54;100.00;101678.59;105195;1263;72190;-54
2024/01/09 10:13:43;;;;;;;3.60;1.60;;;;;;;-8.48;100.00;101683.48;104598;1263;69286;-54
2024/01/09 10:16:10;;;;;;;5.20;1.40;;;;;;;-8.44;100.00;101676.75;108318;1260;72688;-55
2024/01/09 10:18:39;;;;;;;4.00;1.20;;;;;;;-8.41;100.00;101669.81;104743;1261;59746;-53
2024/01/09 10:21:07;;;;;;;3.10;1.30;;;;;;;-8.35;100.00;101663.50;105470;1263;59746;-54
2024/01/09 10:23:38;;;;;;;5.40;1.40;;;;;;;-8.32;100.00;101658.95;104446;1257;72103;-56
2024/01/09 10:26:12;;;;;;;5.40;1.60;;;;;;;-8.27;100.00;101656.30;105263;1259;65721;-54
2024/01/09 10:28:41;;;;;;;4.80;1.40;;;;;;;-8.22;100.00;101655.33;104706;1261;75042;-55
2024/01/09 10:31:08;;;;;;;5.30;1.40;;;;;;;-8.18;100.00;101653.13;104601;1263;60847;-53
2024/01/09 10:33:39;;;;;;;4.30;1.40;;;;;;;-8.14;100.00;101647.10;104569;1263;59529;-53
2024/01/09 10:36:09;;;;;;;3.40;1.40;;;;;;;-8.10;100.00;101643.14;106067;1257;73146;-55
2024/01/09 10:38:36;;;;;;;4.30;1.30;;;;;;;-8.07;100.00;101642.11;104848;1258;65936;-54
2024/01/09 10:41:14;;;;;;;4.60;1.50;;;;;;;-8.02;100.00;101643.26;105231;1261;71491;-56
2024/01/09 10:43:47;;;;;;;2.80;1.30;;;;;;;-7.97;100.00;101641.23;105020;1257;59844;-54
2024/01/09 10:46:14;;;;;;;4.00;1.30;;;;;;;-7.93;100.00;101644.81;104582;1263;59631;-53
2024/01/09 10:48:42;;;;;;;2.70;1.20;;;;;;;-7.88;100.00;101645.41;104656;1256;72345;-53
2024/01/09 10:51:10;;;;;;;2.10;1.10;;;;;;;-7.83;100.00;101646.05;104730;1259;65781;-55
2024/01/09 10:53:38;;;;;;;3.80;1.40;;;;;;;-7.80;100.00;101647.25;105748;1263;74591;-54
2024/01/09 10:56:06;;;;;;;4.00;1.20;;;;;;;-7.77;100.00;101644.79;104702;1267;61416;-54
2024/01/09 10:58:35;;;;;;;6.10;1.20;;;;;;;-7.74;100.00;101644.30;105252;1263;62245;-54
2024/01/09 11:01:03;;;;;;;6.00;1.50;;;;;;;-7.70;100.00;101635.80;104641;1263;73279;-55
2024/01/09 11:03:31;;;;;;;2.90;1.20;;;;;;;-7.67;100.00;101632.82;108542;1264;69245;-56
2024/01/09 11:05:58;;;;;;;3.10;0.90;;;;;;;-7.61;100.00;101633.50;108611;1259;71445;-55
2024/01/09 11:08:27;;;;;;;3.10;1.00;;;;;;;-7.55;100.00;101634.30;105975;1259;60056;-54